Main page
METAR-TAF:

METAR-TAF

Airports :

Shirak Airport

Gyumri, Armenia

latitude: 40-45-01N, longitude: 043-51-33E, elevation: 1524 m

Current weather observation

The report was made 36 minutes ago, at 07:30 UTC
Wind 9 kt from the East/Northeast
Temperature 13°C
Humidity 72%
Pressure 1017 hPa
Visibility 10 km or more
Broken clouds at a height of 4300 ft, Cumulonimbus.

METAR: UDSG 240730Z 07009KT 9999 BKN043CB 13/08 Q1017 NOSIG

Time: 12:06 (08:06 UTC)

Forecast

The report was made 3 hours and 8 minutes ago, at 04:58 UTC
Forecast valid from 24 at 06 UTC to 25 at 06 UTC
Wind 6 kt from the East/Northeast
Visibility 10 km or more
Broken clouds at a height of 4000 ft
Temporary
from 24 at 06 UTC to 24 at 21 UTC
Wind 16 kt from variable directions with gusts up to 26 kt
Visibility: 5000 m
Broken clouds at a height of 2000 ft, Cumulonimbus.
Overcast at a height of 3000 ft
thunderstorm, light rain, mist,

TAF: UDSG 240458Z 2406/2506 07006KT 9999 BKN040 TEMPO 2406/2421 VRB16G26KT 5000 -TSRA BR BKN020CB OVC030

Weather observations and forecasts of more than 4000 airports (METAR and TAF reports).

The available stations are represented by yellow and red dots on the map.

Hover mouse over dot to see the name of the station.

Then click to see weather observations and forecasts.

To change the map : click on the green buttons with a black cross to zoom in, on the green button with a dash to zoom out, or on the green arrows for adjacent maps.


METAR-TAF: